Time;durP1;ratioP1;P1;durP2;ratioP2;P2;SDS_P1;SDS_P2;PMS_P1;PMS_P2;Temp;Humidity;BMP_temperature;BMP_pressure;BME280_temperature;BME280_humidity;BME280_pressure;Samples;Min_cycle;Max_cycle;Signal;HPM_P1;HPM_P2
2021/12/30 00:01:56;;;;;;;4.50;2.97;;;21.90;37.40;;;;;;5064582;28;20406;-65
2021/12/30 00:04:22;;;;;;;3.92;2.97;;;21.90;37.40;;;;;;5082420;28;20403;-65
2021/12/30 00:06:48;;;;;;;3.70;3.10;;;21.90;37.50;;;;;;5078709;28;20384;-65
2021/12/30 00:09:14;;;;;;;4.15;3.40;;;21.90;37.50;;;;;;5080999;28;20402;-65
2021/12/30 00:11:41;;;;;;;3.15;2.70;;;21.90;37.40;;;;;;5063115;28;20396;-65
2021/12/30 00:14:08;;;;;;;3.50;2.87;;;21.90;37.50;;;;;;5082170;28;20476;-64
2021/12/30 00:16:34;;;;;;;4.28;2.83;;;21.90;37.50;;;;;;5082079;28;20384;-65
2021/12/30 00:19:00;;;;;;;3.60;2.70;;;21.80;37.50;;;;;;5082241;28;20788;-65
2021/12/30 00:21:26;;;;;;;3.50;2.78;;;21.80;37.60;;;;;;5081906;28;20394;-65
2021/12/30 00:23:52;;;;;;;4.00;2.63;;;21.80;37.60;;;;;;5082146;28;20394;-64
2021/12/30 00:26:18;;;;;;;2.88;2.42;;;21.80;37.60;;;;;;5063942;28;20485;-64
2021/12/30 00:28:44;;;;;;;2.85;2.40;;;21.80;37.70;;;;;;5078719;28;20945;-65
2021/12/30 00:31:10;;;;;;;2.93;2.57;;;21.80;37.70;;;;;;5082136;28;20386;-70
2021/12/30 00:33:36;;;;;;;3.13;2.58;;;21.80;37.70;;;;;;5082545;28;20761;-65
2021/12/30 00:36:06;;;;;;;3.07;2.50;;;21.80;37.70;;;;;;5082137;28;20386;-70
2021/12/30 00:38:37;;;;;;;4.13;2.38;;;21.80;37.70;;;;;;5081412;28;20809;-65
2021/12/30 00:41:03;;;;;;;2.90;2.30;;;21.80;37.70;;;;;;5082129;28;20389;-69
2021/12/30 00:43:28;;;;;;;3.00;2.30;;;21.80;37.60;;;;;;5081826;28;20433;-66
2021/12/30 00:45:54;;;;;;;2.80;2.10;;;21.70;37.60;;;;;;5081935;28;20383;-68
2021/12/30 00:48:19;;;;;;;3.90;2.15;;;21.80;37.60;;;;;;5079896;28;20386;-66
2021/12/30 00:50:46;;;;;;;2.67;2.23;;;21.80;37.60;;;;;;5080790;28;20435;-65
2021/12/30 00:53:13;;;;;;;3.13;2.20;;;21.80;37.60;;;;;;5081569;28;20393;-69
2021/12/30 00:55:39;;;;;;;2.75;2.03;;;21.80;37.60;;;;;;5081882;28;20386;-66
2021/12/30 00:58:06;;;;;;;2.83;2.10;;;21.80;37.60;;;;;;5081434;28;20432;-70
2021/12/30 01:00:33;;;;;;;2.60;2.10;;;21.80;37.60;;;;;;5063045;28;20398;-65
2021/12/30 01:02:59;;;;;;;2.90;2.00;;;21.80;37.60;;;;;;5081491;28;20821;-65
2021/12/30 01:05:25;;;;;;;2.63;1.92;;;21.80;37.60;;;;;;5081400;28;20653;-66
2021/12/30 01:07:51;;;;;;;2.73;1.90;;;21.80;37.70;;;;;;5081168;28;20394;-65
2021/12/30 01:10:20;;;;;;;2.60;1.90;;;21.70;37.60;;;;;;5081414;28;20429;-64
2021/12/30 01:12:47;;;;;;;2.28;1.80;;;21.70;37.60;;;;;;5080558;28;20377;-64
2021/12/30 01:15:16;;;;;;;2.35;1.90;;;21.80;37.60;;;;;;5081454;28;20498;-65
2021/12/30 01:20:10;;;;;;;2.45;1.80;;;21.70;37.50;;;;;;5082280;28;20390;-64
2021/12/30 01:22:35;;;;;;;2.00;1.70;;;21.70;37.60;;;;;;5080913;28;20459;-64
2021/12/30 01:25:03;;;;;;;2.15;1.65;;;21.70;37.50;;;;;;5081382;28;20382;-65
2021/12/30 01:27:28;;;;;;;2.50;1.60;;;21.70;37.50;;;;;;5081515;28;20413;-64
2021/12/30 01:29:54;;;;;;;2.10;1.70;;;21.70;37.60;;;;;;5081498;28;20375;-68
2021/12/30 01:32:20;;;;;;;2.80;1.80;;;21.70;37.60;;;;;;5081250;28;20386;-65
2021/12/30 01:34:48;;;;;;;2.10;1.77;;;21.70;37.60;;;;;;5080774;28;20390;-66
2021/12/30 01:37:18;;;;;;;1.88;1.50;;;21.70;37.50;;;;;;5080917;28;21022;-64
2021/12/30 01:39:44;;;;;;;2.10;1.70;;;21.70;37.60;;;;;;5081546;28;20492;-65
2021/12/30 01:42:10;;;;;;;2.42;1.75;;;21.70;37.60;;;;;;5081375;28;20421;-64
2021/12/30 01:44:36;;;;;;;2.03;1.30;;;21.70;37.50;;;;;;5059048;28;20411;-64
2021/12/30 01:47:05;;;;;;;2.17;1.52;;;21.70;37.50;;;;;;5059721;28;20530;-64
2021/12/30 01:49:31;;;;;;;2.35;1.52;;;21.70;37.60;;;;;;5061653;28;20886;-64
2021/12/30 01:51:57;;;;;;;1.90;1.30;;;21.70;37.50;;;;;;5060904;28;20529;-65
2021/12/30 01:54:24;;;;;;;2.13;1.40;;;21.70;37.50;;;;;;5061257;28;20446;-64
2021/12/30 01:56:51;;;;;;;1.77;1.40;;;21.70;37.50;;;;;;5059453;28;20410;-64
2021/12/30 01:59:22;;;;;;;2.40;1.60;;;21.70;37.50;;;;;;5061243;28;20398;-64
2021/12/30 02:01:53;;;;;;;2.17;1.50;;;21.70;38.10;;;;;;5060730;28;20392;-64
2021/12/30 02:04:19;;;;;;;1.50;1.33;;;21.70;37.50;;;;;;5061080;28;20426;-66
2021/12/30 02:06:45;;;;;;;2.15;1.30;;;21.70;37.50;;;;;;5060413;28;20466;-64
2021/12/30 02:09:11;;;;;;;1.90;1.33;;;21.70;37.50;;;;;;5059618;28;20787;-66
2021/12/30 02:11:37;;;;;;;1.85;1.30;;;21.70;37.50;;;;;;5060863;28;20395;-64
2021/12/30 02:14:03;;;;;;;1.43;1.20;;;21.70;37.50;;;;;;5060996;28;20394;-64
2021/12/30 02:16:28;;;;;;;2.20;1.20;;;21.70;37.50;;;;;;5061047;28;20392;-64
2021/12/30 02:18:54;;;;;;;1.52;1.20;;;21.70;37.40;;;;;;5060208;28;20447;-64
2021/12/30 02:21:20;;;;;;;1.90;1.25;;;21.70;37.40;;;;;;5060930;28;20437;-64
2021/12/30 02:23:46;;;;;;;1.60;1.20;;;21.70;37.50;;;;;;5060501;28;21351;-64
2021/12/30 02:26:15;;;;;;;1.73;1.23;;;21.60;37.40;;;;;;5061260;28;20379;-64
2021/12/30 02:28:41;;;;;;;1.75;1.30;;;21.60;37.40;;;;;;5060645;28;20388;-65
2021/12/30 02:31:13;;;;;;;1.98;1.15;;;21.60;37.40;;;;;;5058862;28;20462;-65
2021/12/30 02:33:40;;;;;;;1.40;1.05;;;21.60;37.40;;;;;;5061574;28;20383;-64
2021/12/30 02:36:06;;;;;;;1.50;1.10;;;21.60;37.50;;;;;;5064348;28;20468;-64
2021/12/30 02:38:32;;;;;;;1.65;1.20;;;21.60;37.40;;;;;;5064285;28;20982;-64
2021/12/30 02:41:00;;;;;;;1.45;1.00;;;21.60;37.40;;;;;;5062763;28;20477;-64
2021/12/30 02:43:28;;;;;;;1.40;1.00;;;21.60;37.40;;;;;;5072972;28;20516;-64
2021/12/30 02:45:55;;;;;;;1.40;1.10;;;21.60;37.40;;;;;;5084376;28;20484;-64
2021/12/30 02:48:23;;;;;;;1.60;1.10;;;21.60;37.40;;;;;;5084418;28;20465;-64
2021/12/30 02:50:52;;;;;;;1.30;0.95;;;21.60;37.40;;;;;;5083702;28;20417;-64
2021/12/30 02:53:20;;;;;;;1.35;1.00;;;21.60;37.40;;;;;;5084156;28;20443;-65
2021/12/30 02:55:47;;;;;;;1.10;0.88;;;21.60;37.40;;;;;;5084074;28;20377;-64
2021/12/30 02:58:13;;;;;;;1.63;0.93;;;21.60;37.40;;;;;;5084287;28;20451;-64
2021/12/30 03:00:40;;;;;;;1.38;0.93;;;21.60;37.40;;;;;;5065322;28;20398;-64
2021/12/30 03:03:06;;;;;;;1.40;1.00;;;21.60;37.40;;;;;;5083284;28;20417;-64
2021/12/30 03:05:32;;;;;;;1.33;1.00;;;21.60;37.40;;;;;;5065635;28;20401;-64
2021/12/30 03:07:58;;;;;;;1.30;1.00;;;21.60;37.40;;;;;;5083917;28;20390;-65
2021/12/30 03:10:27;;;;;;;1.27;0.90;;;21.60;37.40;;;;;;5084007;28;20746;-64
2021/12/30 03:12:57;;;;;;;1.05;0.80;;;21.60;37.40;;;;;;5082936;28;20394;-64
2021/12/30 03:15:26;;;;;;;1.55;0.95;;;21.60;38.00;;;;;;5083821;28;20396;-64
2021/12/30 03:17:52;;;;;;;1.20;0.80;;;21.60;37.40;;;;;;5083786;28;20397;-66
2021/12/30 03:20:18;;;;;;;1.23;0.90;;;21.60;37.40;;;;;;5083991;28;20477;-64
2021/12/30 03:22:44;;;;;;;1.10;0.80;;;21.60;37.40;;;;;;5065263;28;20491;-64
2021/12/30 03:25:12;;;;;;;1.40;0.82;;;21.60;37.40;;;;;;5083611;28;20862;-63
2021/12/30 03:27:38;;;;;;;1.23;0.80;;;21.60;37.30;;;;;;5083618;28;20429;-64
2021/12/30 03:30:07;;;;;;;1.33;0.87;;;21.60;37.30;;;;;;5083617;28;20425;-64
2021/12/30 03:32:33;;;;;;;0.98;0.70;;;21.60;37.40;;;;;;5065603;28;20863;-66
2021/12/30 03:34:58;;;;;;;1.42;0.88;;;21.60;37.40;;;;;;5083476;28;20378;-64
2021/12/30 03:37:24;;;;;;;1.20;0.80;;;21.60;37.40;;;;;;5083428;28;20386;-64
2021/12/30 03:39:51;;;;;;;1.00;0.63;;;21.60;37.40;;;;;;5065549;28;20386;-65
2021/12/30 03:42:17;;;;;;;1.08;0.70;;;21.60;38.00;;;;;;5065242;28;20441;-64
2021/12/30 03:44:43;;;;;;;1.23;0.70;;;21.60;37.40;;;;;;5083115;28;20406;-64
2021/12/30 03:47:14;;;;;;;1.02;0.70;;;21.50;37.40;;;;;;5083422;28;20390;-66
2021/12/30 03:49:44;;;;;;;1.15;0.70;;;21.50;37.30;;;;;;5083260;28;20396;-64
2021/12/30 03:52:10;;;;;;;1.00;0.70;;;21.50;37.30;;;;;;5083718;28;20461;-64
2021/12/30 03:54:36;;;;;;;1.00;0.70;;;21.50;37.30;;;;;;5083349;28;20386;-63
2021/12/30 03:57:02;;;;;;;1.35;0.80;;;21.50;37.30;;;;;;5082949;28;20826;-64
2021/12/30 03:59:27;;;;;;;1.00;0.70;;;21.50;37.30;;;;;;5083407;28;20481;-64
2021/12/30 04:01:53;;;;;;;1.35;0.70;;;21.60;37.30;;;;;;5082624;28;21409;-63
2021/12/30 04:04:19;;;;;;;1.00;0.70;;;21.60;37.30;;;;;;5083013;28;20426;-64
2021/12/30 04:06:45;;;;;;;1.00;0.60;;;21.60;37.30;;;;;;5082430;28;20394;-64
2021/12/30 04:09:11;;;;;;;0.80;0.50;;;21.60;37.30;;;;;;5082852;28;20382;-64
2021/12/30 04:11:37;;;;;;;0.80;0.55;;;21.60;37.40;;;;;;5083272;28;20427;-65
2021/12/30 04:14:04;;;;;;;1.10;0.65;;;21.50;37.30;;;;;;5083033;28;20393;-64
2021/12/30 04:16:29;;;;;;;0.90;0.52;;;21.60;37.40;;;;;;5082206;28;20915;-63
2021/12/30 04:18:55;;;;;;;0.97;0.53;;;21.50;37.30;;;;;;5082191;28;20477;-63
2021/12/30 04:21:22;;;;;;;0.85;0.60;;;21.60;37.30;;;;;;5083051;28;21043;-65
2021/12/30 04:23:48;;;;;;;1.10;0.60;;;21.60;37.30;;;;;;5064124;28;20425;-64
2021/12/30 04:26:14;;;;;;;0.90;0.57;;;21.50;37.30;;;;;;5082641;28;20394;-65
2021/12/30 04:28:40;;;;;;;1.10;0.60;;;21.50;37.40;;;;;;5082211;28;20396;-65
2021/12/30 04:31:06;;;;;;;0.90;0.50;;;21.50;37.40;;;;;;5064060;28;20417;-64
2021/12/30 04:33:32;;;;;;;0.80;0.57;;;21.50;38.00;;;;;;5082427;28;20426;-66
2021/12/30 04:35:58;;;;;;;0.82;0.50;;;21.50;37.30;;;;;;5082126;28;20420;-64
2021/12/30 04:38:29;;;;;;;0.80;0.52;;;21.50;37.40;;;;;;5064577;28;20398;-65
2021/12/30 04:40:55;;;;;;;1.05;0.60;;;21.50;37.30;;;;;;5082228;28;20374;-63
2021/12/30 04:43:21;;;;;;;0.80;0.50;;;21.50;37.30;;;;;;5082189;28;20441;-64
2021/12/30 04:45:47;;;;;;;0.73;0.50;;;21.50;37.40;;;;;;5082555;28;20770;-64
2021/12/30 04:48:14;;;;;;;0.60;0.45;;;21.50;37.40;;;;;;5081977;28;20758;-64
2021/12/30 04:50:40;;;;;;;0.80;0.60;;;21.50;37.40;;;;;;5063439;28;20390;-63
2021/12/30 04:53:06;;;;;;;0.68;0.47;;;21.50;37.30;;;;;;5082023;28;20393;-64
2021/12/30 04:55:32;;;;;;;0.70;0.40;;;21.50;37.40;;;;;;5081577;28;20508;-64
2021/12/30 04:57:58;;;;;;;0.60;0.40;;;21.50;37.40;;;;;;5081735;28;20481;-65
2021/12/30 05:00:23;;;;;;;0.85;0.60;;;21.50;37.40;;;;;;5082351;28;20378;-64
2021/12/30 05:05:39;;;;;;;0.70;0.50;;;21.50;37.30;;;;;;5082299;28;20836;-63
2021/12/30 05:08:05;;;;;;;1.00;0.50;;;21.50;37.30;;;;;;5081652;28;20390;-66
2021/12/30 05:10:31;;;;;;;0.90;0.50;;;21.50;37.30;;;;;;5082020;28;20401;-66
2021/12/30 05:12:57;;;;;;;0.80;0.52;;;21.50;37.30;;;;;;5080924;28;20784;-66
2021/12/30 05:15:22;;;;;;;0.60;0.40;;;21.50;37.30;;;;;;5063500;28;20401;-65
2021/12/30 05:17:48;;;;;;;0.70;0.50;;;21.50;37.30;;;;;;5082134;28;20386;-65
2021/12/30 05:20:14;;;;;;;0.60;0.45;;;21.50;37.30;;;;;;5081563;28;20382;-65
2021/12/30 05:22:42;;;;;;;0.45;0.40;;;21.50;37.30;;;;;;5082005;28;20462;-64
2021/12/30 05:25:09;;;;;;;0.60;0.40;;;21.50;37.30;;;;;;5081192;28;20378;-65
2021/12/30 05:27:35;;;;;;;0.68;0.40;;;21.50;37.30;;;;;;5081972;28;20386;-65
2021/12/30 05:30:03;;;;;;;0.68;0.45;;;21.50;37.30;;;;;;5081399;28;20441;-64
2021/12/30 05:32:28;;;;;;;0.70;0.60;;;21.50;37.30;;;;;;5081928;28;20398;-65
2021/12/30 05:34:54;;;;;;;0.60;0.45;;;21.50;37.40;;;;;;5063021;28;20382;-64
2021/12/30 05:37:19;;;;;;;0.80;0.40;;;21.50;37.30;;;;;;5081514;28;20455;-64
2021/12/30 05:39:45;;;;;;;0.68;0.45;;;21.50;37.30;;;;;;5081034;28;20743;-64
2021/12/30 05:42:11;;;;;;;1.00;0.60;;;21.50;37.30;;;;;;5081547;28;20758;-64
2021/12/30 05:44:36;;;;;;;0.63;0.40;;;21.50;37.30;;;;;;5063578;28;20402;-63
2021/12/30 05:47:03;;;;;;;0.70;0.40;;;21.50;37.30;;;;;;5080709;28;20382;-64
2021/12/30 05:49:28;;;;;;;0.63;0.40;;;21.50;37.90;;;;;;5081480;28;20390;-64
2021/12/30 05:51:54;;;;;;;0.60;0.50;;;21.50;37.30;;;;;;5080842;28;20390;-65
2021/12/30 05:54:19;;;;;;;0.73;0.43;;;21.50;37.30;;;;;;5081295;28;20378;-64
2021/12/30 05:56:45;;;;;;;0.60;0.40;;;21.50;37.30;;;;;;5081118;28;20824;-64
2021/12/30 05:59:11;;;;;;;0.85;0.40;;;21.50;37.30;;;;;;5081355;28;20775;-64
2021/12/30 06:01:36;;;;;;;0.80;0.50;;;21.50;37.30;;;;;;5080987;28;20455;-64
2021/12/30 06:04:02;;;;;;;1.00;0.40;;;21.50;37.30;;;;;;5063631;28;20390;-64
2021/12/30 06:06:28;;;;;;;1.00;0.43;;;21.50;37.30;;;;;;5081339;28;20378;-64
2021/12/30 06:08:55;;;;;;;0.70;0.50;;;21.50;37.30;;;;;;5082553;28;20432;-65
2021/12/30 06:11:21;;;;;;;1.10;0.50;;;21.50;37.40;;;;;;5085338;28;20377;-64
2021/12/30 06:13:46;;;;;;;0.80;0.40;;;21.50;37.30;;;;;;5084847;28;20777;-65
2021/12/30 06:16:12;;;;;;;0.82;0.50;;;21.50;37.30;;;;;;5085299;28;20386;-64
2021/12/30 06:18:38;;;;;;;0.50;0.40;;;21.50;37.40;;;;;;5085532;28;20964;-64
2021/12/30 06:21:03;;;;;;;0.60;0.40;;;21.50;37.30;;;;;;5084648;28;20386;-64
2021/12/30 06:23:29;;;;;;;0.70;0.40;;;21.50;37.30;;;;;;5084484;28;20417;-64
2021/12/30 06:25:54;;;;;;;0.80;0.43;;;21.50;37.30;;;;;;5084972;28;20440;-64
2021/12/30 06:28:20;;;;;;;0.52;0.43;;;21.50;37.40;;;;;;5066507;28;20412;-65
2021/12/30 06:30:46;;;;;;;0.50;0.40;;;21.50;37.30;;;;;;5084939;28;20750;-65
2021/12/30 06:33:11;;;;;;;0.45;0.40;;;21.50;37.30;;;;;;5066154;28;20421;-64
2021/12/30 06:35:37;;;;;;;0.70;0.40;;;21.50;37.30;;;;;;5085158;28;20381;-64
2021/12/30 06:38:03;;;;;;;0.50;0.30;;;21.50;37.40;;;;;;5084514;28;20382;-64
2021/12/30 06:40:30;;;;;;;0.75;0.50;;;21.50;37.30;;;;;;5084935;28;20822;-64
2021/12/30 06:42:56;;;;;;;0.75;0.40;;;21.50;37.50;;;;;;5066001;28;20841;-64
2021/12/30 06:45:21;;;;;;;0.60;0.40;;;21.50;37.40;;;;;;5065791;28;20386;-64
2021/12/30 06:47:48;;;;;;;0.50;0.40;;;21.50;37.40;;;;;;5084677;28;20378;-64
2021/12/30 06:50:15;;;;;;;0.63;0.40;;;21.50;37.40;;;;;;5084656;28;21479;-64
2021/12/30 06:52:43;;;;;;;0.40;0.40;;;21.50;37.40;;;;;;5084854;28;20398;-64
2021/12/30 06:55:09;;;;;;;1.30;0.40;;;21.50;37.80;;;;;;5084181;28;20984;-64
2021/12/30 06:57:35;;;;;;;0.93;0.50;;;21.50;38.40;;;;;;5083880;28;20398;-65
2021/12/30 07:00:04;;;;;;;0.80;0.40;;;21.60;38.40;;;;;;5083945;28;20396;-65
2021/12/30 07:02:30;;;;;;;1.80;0.60;;;21.70;38.50;;;;;;5083561;28;20406;-64
2021/12/30 07:04:56;;;;;;;1.58;0.90;;;21.80;38.80;;;;;;5084320;28;20390;-64
2021/12/30 07:07:21;;;;;;;2.87;1.30;;;21.80;38.70;;;;;;5065536;28;20469;-65
2021/12/30 07:09:47;;;;;;;1.83;1.20;;;21.80;39.70;;;;;;5084535;28;20398;-65
2021/12/30 07:12:13;;;;;;;2.83;1.23;;;21.80;40.30;;;;;;5083749;28;20435;-64
2021/12/30 07:14:39;;;;;;;1.58;1.00;;;21.90;40.20;;;;;;5083308;28;20398;-66
2021/12/30 07:17:05;;;;;;;2.67;0.93;;;21.90;40.30;;;;;;5083527;28;20386;-64
2021/12/30 07:19:30;;;;;;;2.73;1.00;;;21.80;39.60;;;;;;5080001;28;20390;-64
2021/12/30 07:21:56;;;;;;;3.83;1.20;;;21.80;40.10;;;;;;5083336;28;20416;-64
2021/12/30 07:24:22;;;;;;;1.60;0.87;;;21.90;40.70;;;;;;5084192;28;20950;-64
2021/12/30 07:26:49;;;;;;;3.95;1.08;;;21.90;40.70;;;;;;5083738;28;20412;-64
2021/12/30 07:29:15;;;;;;;5.63;1.08;;;21.90;40.30;;;;;;5083735;28;20881;-64
2021/12/30 07:31:40;;;;;;;6.33;1.10;;;21.90;39.30;;;;;;5083490;28;20404;-64
2021/12/30 07:34:06;;;;;;;7.22;1.75;;;21.80;38.60;;;;;;5065208;28;20404;-65
2021/12/30 07:36:32;;;;;;;7.13;2.00;;;21.70;39.90;;;;;;5082770;28;20723;-65
2021/12/30 07:38:57;;;;;;;5.25;1.50;;;21.80;41.00;;;;;;5080754;28;20935;-65
2021/12/30 07:41:23;;;;;;;5.68;1.10;;;21.80;40.20;;;;;;5082166;28;20435;-64
2021/12/30 07:43:49;;;;;;;3.42;1.23;;;21.80;39.70;;;;;;5081705;28;20908;-65
2021/12/30 07:46:14;;;;;;;3.90;0.93;;;21.70;40.50;;;;;;5082627;28;20777;-65
2021/12/30 07:48:40;;;;;;;4.13;1.20;;;21.70;41.40;;;;;;5064685;28;20516;-65
2021/12/30 07:51:06;;;;;;;5.13;1.10;;;21.70;40.70;;;;;;5064350;28;20474;-64
2021/12/30 07:53:32;;;;;;;4.00;0.82;;;21.70;41.30;;;;;;5064669;28;20495;-64
2021/12/30 07:56:01;;;;;;;3.70;0.90;;;21.70;40.30;;;;;;5064478;28;21012;-64
2021/12/30 07:58:27;;;;;;;3.60;0.80;;;21.70;41.30;;;;;;5083291;28;20393;-64
2021/12/30 08:00:53;;;;;;;3.70;0.70;;;21.60;41.40;;;;;;5082933;28;20397;-64
2021/12/30 08:03:19;;;;;;;3.22;0.80;;;21.60;41.10;;;;;;5082664;28;20898;-64
2021/12/30 08:05:45;;;;;;;2.22;0.70;;;21.60;41.60;;;;;;5083096;28;20385;-64
2021/12/30 08:08:11;;;;;;;3.20;0.90;;;21.60;41.60;;;;;;5082396;28;20398;-64
2021/12/30 08:10:36;;;;;;;2.25;0.80;;;21.60;40.90;;;;;;5082788;28;20390;-65
2021/12/30 08:13:02;;;;;;;1.40;0.70;;;21.60;41.30;;;;;;5082072;28;20401;-64
2021/12/30 08:15:28;;;;;;;2.03;0.65;;;21.70;40.80;;;;;;5081494;28;20414;-64
2021/12/30 08:17:54;;;;;;;2.95;0.70;;;21.70;40.40;;;;;;5063724;28;20975;-64
2021/12/30 08:20:22;;;;;;;3.40;0.70;;;21.70;40.60;;;;;;5080183;28;20481;-65
2021/12/30 08:22:50;;;;;;;2.10;0.80;;;21.70;40.70;;;;;;5079687;28;21012;-64
2021/12/30 08:25:16;;;;;;;2.78;0.80;;;21.70;40.40;;;;;;5079501;28;20850;-66
2021/12/30 08:27:42;;;;;;;3.83;0.70;;;21.70;40.30;;;;;;5081218;28;20480;-65
2021/12/30 08:30:11;;;;;;;4.43;0.75;;;21.70;40.00;;;;;;5063563;28;20386;-65
2021/12/30 08:32:38;;;;;;;1.80;0.60;;;21.70;39.80;;;;;;5062194;28;20516;-68
2021/12/30 08:35:04;;;;;;;3.97;0.68;;;21.70;39.50;;;;;;5081454;28;20461;-64
2021/12/30 08:37:30;;;;;;;2.63;0.60;;;21.70;39.30;;;;;;5082017;28;20477;-64
2021/12/30 08:39:55;;;;;;;4.63;0.70;;;21.70;39.20;;;;;;5082203;28;20560;-64
2021/12/30 08:42:24;;;;;;;2.38;0.68;;;21.70;39.10;;;;;;5063604;28;20406;-64
2021/12/30 08:44:52;;;;;;;2.50;0.60;;;21.70;39.00;;;;;;5081490;28;20455;-64
2021/12/30 08:47:18;;;;;;;2.85;0.57;;;21.70;38.90;;;;;;5082108;28;20424;-65
2021/12/30 08:49:46;;;;;;;2.17;0.50;;;21.70;38.90;;;;;;5081299;28;21460;-64
2021/12/30 08:52:18;;;;;;;1.65;0.60;;;21.70;39.00;;;;;;5081481;28;20394;-67
2021/12/30 08:54:45;;;;;;;1.58;0.60;;;21.70;38.90;;;;;;5081669;28;20386;-64
2021/12/30 08:57:11;;;;;;;1.13;0.47;;;21.60;38.90;;;;;;5080956;28;20410;-65
2021/12/30 08:59:37;;;;;;;1.77;0.70;;;21.60;38.90;;;;;;5063526;28;20519;-64
2021/12/30 09:02:05;;;;;;;2.88;0.68;;;21.70;38.90;;;;;;5081410;28;20516;-65
2021/12/30 09:04:31;;;;;;;2.20;0.60;;;21.70;38.80;;;;;;5081847;28;21212;-65
2021/12/30 09:06:58;;;;;;;1.67;0.60;;;21.70;38.70;;;;;;5063595;28;20386;-64
2021/12/30 09:09:24;;;;;;;1.95;0.50;;;21.60;38.60;;;;;;5081131;28;20482;-65
2021/12/30 09:11:49;;;;;;;3.83;0.73;;;21.70;38.70;;;;;;5080905;28;20396;-66
2021/12/30 09:14:15;;;;;;;1.85;0.65;;;21.60;38.70;;;;;;5062725;28;20817;-65
2021/12/30 09:16:42;;;;;;;1.50;0.60;;;21.60;39.20;;;;;;5081492;28;20892;-65
2021/12/30 09:19:07;;;;;;;1.87;0.90;;;21.60;38.70;;;;;;5063099;28;20425;-64
2021/12/30 09:21:37;;;;;;;1.20;0.60;;;21.60;38.60;;;;;;5081357;28;20428;-65
2021/12/30 09:24:03;;;;;;;1.52;0.63;;;21.60;38.70;;;;;;5081434;28;20460;-65
2021/12/30 09:26:29;;;;;;;1.70;0.60;;;21.60;38.60;;;;;;5080927;28;20774;-65
2021/12/30 09:28:54;;;;;;;1.90;1.00;;;21.60;38.60;;;;;;5082253;28;20406;-64
2021/12/30 09:31:20;;;;;;;1.52;0.73;;;21.70;38.60;;;;;;5063696;28;20403;-64
2021/12/30 09:33:46;;;;;;;2.58;0.77;;;21.70;39.20;;;;;;5063468;28;20397;-64
2021/12/30 09:36:11;;;;;;;3.30;0.80;;;21.70;40.10;;;;;;5082704;28;20385;-65
2021/12/30 09:38:37;;;;;;;2.78;0.88;;;21.80;40.40;;;;;;5080839;28;20416;-64
2021/12/30 09:59:57;;;;;;;3.28;1.00;;;22.80;41.10;;;;;;5129789;27;20351;-68
2021/12/30 10:02:23;;;;;;;4.53;1.20;;;22.20;41.50;;;;;;5168374;27;20390;-65
2021/12/30 10:05:05;;;;;;;7.00;1.30;;;22.10;41.20;;;;;;5150548;27;20390;-66
2021/12/30 10:07:31;;;;;;;2.30;1.00;;;22.20;41.40;;;;;;5150562;27;20402;-66
2021/12/30 10:10:01;;;;;;;10.38;1.27;;;22.20;41.40;;;;;;5148722;27;20893;-66
2021/12/30 10:12:34;;;;;;;5.18;1.20;;;22.30;41.40;;;;;;5148731;27;20386;-65
2021/12/30 10:15:00;;;;;;;6.97;1.13;;;22.30;41.20;;;;;;5135536;27;20407;-65
2021/12/30 10:17:27;;;;;;;5.15;0.88;;;22.30;41.30;;;;;;5128164;28;20396;-66
2021/12/30 10:19:54;;;;;;;4.55;1.02;;;22.30;41.00;;;;;;5128414;28;20452;-65
2021/12/30 10:22:23;;;;;;;3.40;0.80;;;22.40;41.20;;;;;;5129680;28;20384;-66
2021/12/30 10:24:50;;;;;;;2.95;0.80;;;22.40;41.40;;;;;;5128197;28;20387;-66
2021/12/30 10:27:26;;;;;;;7.00;1.13;;;22.30;41.10;;;;;;5129448;28;20371;-68
2021/12/30 10:29:53;;;;;;;6.57;1.13;;;22.40;41.30;;;;;;5127981;28;20432;-69
2021/12/30 10:32:23;;;;;;;4.05;1.00;;;22.30;41.10;;;;;;5128994;27;20469;-68
2021/12/30 10:35:07;;;;;;;5.75;1.00;;;22.40;41.40;;;;;;5129081;28;20474;-69
2021/12/30 10:37:34;;;;;;;4.70;1.00;;;22.40;41.40;;;;;;5127967;28;20404;-69
2021/12/30 10:40:00;;;;;;;5.22;1.08;;;22.40;41.50;;;;;;5127859;28;20391;-68
2021/12/30 10:42:30;;;;;;;4.68;0.85;;;22.40;41.30;;;;;;5127992;28;20388;-68
2021/12/30 10:45:04;;;;;;;5.97;0.80;;;22.30;41.20;;;;;;5129001;28;20861;-69
2021/12/30 10:47:33;;;;;;;4.80;0.80;;;22.40;41.30;;;;;;5127905;28;20506;-69
2021/12/30 10:50:09;;;;;;;4.63;0.80;;;22.30;41.20;;;;;;5125729;27;20738;-67
2021/12/30 10:52:44;;;;;;;5.00;0.88;;;22.30;40.70;;;;;;5109838;27;20927;-68
2021/12/30 10:55:12;;;;;;;5.80;0.98;;;22.30;40.90;;;;;;5106009;28;20397;-67
2021/12/30 10:57:38;;;;;;;5.03;1.00;;;22.30;41.20;;;;;;5104294;28;20416;-68
2021/12/30 11:00:08;;;;;;;4.13;1.00;;;22.30;41.10;;;;;;5094317;27;20767;-69
2021/12/30 11:02:34;;;;;;;4.00;0.87;;;22.30;41.00;;;;;;5094232;28;20398;-68
2021/12/30 11:05:07;;;;;;;3.00;0.88;;;22.30;40.90;;;;;;5091859;28;20427;-67
2021/12/30 11:07:46;;;;;;;3.13;0.90;;;22.30;41.00;;;;;;5093656;28;20408;-68
2021/12/30 11:10:14;;;;;;;2.35;1.00;;;22.30;41.00;;;;;;5094319;28;20890;-67
2021/12/30 11:12:43;;;;;;;2.72;0.90;;;22.40;41.10;;;;;;5096341;28;20386;-68
2021/12/30 11:15:25;;;;;;;2.83;0.80;;;22.30;41.10;;;;;;5083662;28;20567;-67
2021/12/30 11:18:04;;;;;;;1.95;0.85;;;22.40;40.20;;;;;;5092556;28;20480;-68
2021/12/30 11:20:41;;;;;;;2.95;0.88;;;22.30;39.80;;;;;;5094367;28;20448;-68
2021/12/30 11:23:07;;;;;;;3.00;0.90;;;22.30;39.80;;;;;;5085466;28;20451;-68
2021/12/30 11:25:33;;;;;;;2.70;0.90;;;22.30;39.70;;;;;;5097192;28;20882;-67
2021/12/30 11:27:59;;;;;;;3.13;1.10;;;22.30;39.50;;;;;;5098124;28;20884;-67
2021/12/30 11:30:25;;;;;;;2.13;0.80;;;22.30;39.30;;;;;;5093090;27;20410;-68
2021/12/30 11:32:51;;;;;;;3.20;0.80;;;22.30;39.30;;;;;;5095254;27;20791;-68
2021/12/30 11:35:21;;;;;;;3.92;0.77;;;22.20;39.10;;;;;;5099787;27;20394;-67
2021/12/30 11:37:48;;;;;;;1.77;0.73;;;22.20;39.10;;;;;;5088027;27;20473;-67
2021/12/30 11:40:18;;;;;;;2.85;0.90;;;22.30;39.60;;;;;;5086826;27;20386;-67
2021/12/30 11:43:07;;;;;;;4.15;0.93;;;22.30;38.90;;;;;;5088310;27;20876;-68
2021/12/30 11:45:39;;;;;;;2.97;0.90;;;22.20;38.80;;;;;;5085810;27;20386;-67
2021/12/30 11:48:21;;;;;;;1.80;0.90;;;22.20;38.70;;;;;;5095389;27;20413;-67
2021/12/30 11:50:48;;;;;;;1.88;0.80;;;22.20;38.70;;;;;;5085923;27;20481;-68
2021/12/30 11:53:26;;;;;;;1.88;1.02;;;22.20;39.30;;;;;;5090063;27;20863;-67
2021/12/30 11:55:51;;;;;;;1.83;0.85;;;22.20;38.70;;;;;;5089236;27;20374;-67
2021/12/30 11:58:29;;;;;;;2.17;0.90;;;22.10;39.10;;;;;;5098440;27;20406;-68
2021/12/30 12:00:55;;;;;;;1.75;0.70;;;22.10;39.60;;;;;;5091776;27;20476;-67
2021/12/30 12:03:44;;;;;;;2.70;0.90;;;22.00;39.40;;;;;;5088441;27;20524;-67
2021/12/30 12:06:27;;;;;;;3.42;0.80;;;22.10;39.70;;;;;;5085974;27;20458;-68
2021/12/30 12:08:56;;;;;;;3.83;0.73;;;22.10;39.80;;;;;;5086212;27;20420;-68
2021/12/30 12:11:25;;;;;;;2.83;0.80;;;22.10;40.10;;;;;;5089408;27;20389;-66
2021/12/30 12:13:54;;;;;;;4.67;1.00;;;22.20;40.10;;;;;;5084961;27;20763;-68
2021/12/30 12:16:47;;;;;;;5.38;0.90;;;22.20;39.90;;;;;;5097264;27;20376;-69
2021/12/30 12:19:15;;;;;;;3.27;0.90;;;22.20;39.80;;;;;;5088436;27;20439;-67
2021/12/30 12:21:47;;;;;;;6.10;0.80;;;22.20;39.80;;;;;;5087063;27;20394;-67
2021/12/30 12:24:22;;;;;;;2.67;0.70;;;22.20;40.00;;;;;;5084057;27;20407;-68
2021/12/30 12:26:49;;;;;;;5.37;1.00;;;22.20;39.80;;;;;;5086379;28;20390;-66
2021/12/30 12:29:23;;;;;;;4.10;0.82;;;22.20;39.70;;;;;;5085817;27;20436;-68
2021/12/30 12:32:03;;;;;;;3.15;0.85;;;22.20;39.70;;;;;;5083881;27;21425;-66
2021/12/30 12:34:33;;;;;;;4.57;0.80;;;22.20;39.80;;;;;;5084751;27;20497;-66
2021/12/30 12:36:59;;;;;;;2.58;0.80;;;22.20;39.90;;;;;;5082747;27;20393;-68
2021/12/30 12:39:38;;;;;;;4.20;1.08;;;22.20;39.90;;;;;;5084405;27;20394;-66
2021/12/30 12:42:05;;;;;;;4.05;0.90;;;22.20;39.80;;;;;;5084772;27;20378;-68
2021/12/30 12:44:32;;;;;;;3.60;0.80;;;22.20;39.80;;;;;;5085234;28;20389;-66
2021/12/30 12:46:59;;;;;;;2.65;0.80;;;22.20;39.40;;;;;;5086676;27;20382;-66
2021/12/30 12:49:31;;;;;;;3.20;1.00;;;22.20;39.40;;;;;;5084448;27;20425;-67
2021/12/30 12:51:57;;;;;;;4.00;0.80;;;22.20;39.60;;;;;;5090717;28;20385;-67
2021/12/30 12:54:46;;;;;;;4.75;0.98;;;22.20;39.40;;;;;;5094430;27;20453;-68
2021/12/30 12:57:18;;;;;;;4.25;1.15;;;22.10;39.40;;;;;;5085635;27;20396;-68
2021/12/30 12:59:44;;;;;;;5.63;1.10;;;22.10;39.30;;;;;;5091794;27;21264;-67
2021/12/30 13:02:12;;;;;;;4.88;1.20;;;22.20;39.40;;;;;;5093151;28;20374;-67
2021/12/30 13:04:38;;;;;;;5.47;1.10;;;22.20;39.40;;;;;;5089353;27;20497;-67
2021/12/30 13:07:18;;;;;;;5.82;1.10;;;22.20;39.30;;;;;;5086445;27;20405;-66
2021/12/30 13:09:45;;;;;;;5.18;1.08;;;22.20;39.10;;;;;;5088693;28;20394;-67
2021/12/30 13:12:11;;;;;;;4.65;0.90;;;22.10;39.10;;;;;;5088748;27;20559;-67
2021/12/30 13:14:39;;;;;;;6.65;1.10;;;22.20;39.10;;;;;;5084951;28;20504;-67